Time;durP1;ratioP1;P1;durP2;ratioP2;P2;SDS_P1;SDS_P2;PMS_P1;PMS_P2;Temp;Humidity;BMP_temperature;BMP_pressure;BME280_temperature;BME280_humidity;BME280_pressure;Samples;Min_cycle;Max_cycle;Signal;HPM_P1;HPM_P2
2023/07/17 00:00:31;;;;;;;7.05;2.20;;;;;;;-145.69;65.77;51941.41;5097714;28;20221;-87
2023/07/17 00:02:58;;;;;;;5.88;1.95;;;;;;;-145.69;65.78;51959.22;5098122;28;20251;-86
2023/07/17 00:05:24;;;;;;;4.25;1.85;;;;;;;-145.69;66.13;51961.19;5097485;28;20206;-86
2023/07/17 00:07:51;;;;;;;4.55;1.83;;;;;;;-145.69;66.13;51959.22;5097573;28;20198;-86
2023/07/17 00:10:17;;;;;;;3.67;2.05;;;;;;;-145.69;65.88;51959.22;5097560;28;20194;-86
2023/07/17 00:12:44;;;;;;;6.45;2.08;;;;;;;-145.69;65.70;51981.00;5097520;28;20237;-86
2023/07/17 00:15:10;;;;;;;5.68;2.13;;;;;;;-145.69;65.17;51931.50;5097561;28;20255;-85
2023/07/17 00:17:39;;;;;;;3.88;2.33;;;;;;;-145.69;64.56;51969.13;5097141;28;20202;-86
2023/07/17 00:20:10;;;;;;;6.50;2.10;;;;;;;-145.69;64.93;51937.44;5096954;28;20249;-86
2023/07/17 00:22:37;;;;;;;10.00;2.17;;;;;;;-145.69;64.94;51941.41;5095980;28;20660;-85
2023/07/17 00:25:04;;;;;;;3.90;2.10;;;;;;;-145.69;65.22;51981.00;5097218;28;20206;-86
2023/07/17 00:27:31;;;;;;;2.85;1.60;;;;;;;-145.69;65.15;51988.91;5097703;28;20293;-87
2023/07/17 00:29:57;;;;;;;3.92;1.92;;;;;;;-145.69;64.91;51965.16;5096968;28;20280;-86
2023/07/17 00:32:24;;;;;;;7.80;2.17;;;;;;;-145.69;65.11;51965.16;5102244;28;20206;-87
2023/07/17 00:34:52;;;;;;;4.72;1.83;;;;;;;-145.69;64.88;51953.28;5101403;28;20206;-87
2023/07/17 00:37:18;;;;;;;4.38;1.80;;;;;;;-145.69;65.23;51977.03;5101397;28;20194;-87
2023/07/17 00:39:45;;;;;;;6.28;2.20;;;;;;;-145.69;65.38;51961.19;5098971;28;20226;-86
2023/07/17 00:42:11;;;;;;;5.40;2.00;;;;;;;-145.69;65.27;51996.84;5088313;28;20221;-86
2023/07/17 00:44:39;;;;;;;3.47;1.88;;;;;;;-145.69;65.54;51957.25;5079338;28;20676;-87
2023/07/17 00:47:08;;;;;;;3.13;2.03;;;;;;;-145.69;65.78;51981.00;5076775;28;20202;-84
2023/07/17 00:49:35;;;;;;;4.97;2.08;;;;;;;-145.69;66.14;51977.03;5089967;28;20202;-83
2023/07/17 00:52:04;;;;;;;7.13;2.28;;;;;;;-145.69;65.96;51973.06;5098457;28;20202;-87
2023/07/17 00:54:33;;;;;;;4.03;2.28;;;;;;;-145.69;66.18;51977.03;5096810;28;20591;-86
2023/07/17 00:57:03;;;;;;;4.95;1.98;;;;;;;-145.69;65.88;51973.06;5097576;28;20210;-87
2023/07/17 00:59:33;;;;;;;6.05;2.35;;;;;;;-145.69;65.91;51965.16;5103920;28;20290;-87
2023/07/17 01:02:00;;;;;;;3.28;2.15;;;;;;;-145.69;64.59;51953.28;5102053;28;20212;-86
2023/07/17 01:04:27;;;;;;;4.25;2.28;;;;;;;-145.69;64.06;51953.28;5097932;28;20201;-87
2023/07/17 01:06:53;;;;;;;6.18;2.47;;;;;;;-145.69;63.97;51971.09;5098877;28;20229;-87
2023/07/17 01:09:22;;;;;;;4.45;2.10;;;;;;;-145.69;64.34;51979.03;5096033;28;20202;-87
2023/07/17 01:11:48;;;;;;;3.80;2.28;;;;;;;-145.69;64.79;51975.06;5098716;28;20202;-87
2023/07/17 01:14:16;;;;;;;4.85;2.03;;;;;;;-145.69;64.93;51965.16;5096579;28;20237;-86
2023/07/17 01:16:43;;;;;;;6.10;2.30;;;;;;;-145.69;65.95;51947.34;5095417;28;20483;-85
2023/07/17 01:19:10;;;;;;;4.97;2.05;;;;;;;-145.69;64.86;51957.25;5095397;28;20641;-85
2023/07/17 01:21:42;;;;;;;4.95;2.10;;;;;;;-145.69;64.95;51953.28;5096198;28;20221;-86
2023/07/17 01:24:10;;;;;;;8.07;2.10;;;;;;;-145.69;64.38;51965.16;5097130;28;20198;-87
2023/07/17 01:26:36;;;;;;;3.28;2.17;;;;;;;-145.69;64.01;51967.13;5096655;28;20700;-87
2023/07/17 01:29:03;;;;;;;3.20;1.75;;;;;;;-145.69;64.13;51947.34;5096480;28;20206;-86
2023/07/17 01:31:29;;;;;;;4.80;2.03;;;;;;;-145.69;63.44;51961.19;5096265;28;20206;-85
2023/07/17 01:33:56;;;;;;;7.32;2.22;;;;;;;-145.69;63.31;51939.41;5095709;28;20194;-86
2023/07/17 01:36:22;;;;;;;5.10;2.05;;;;;;;-145.69;63.54;51981.00;5096568;28;20202;-86
2023/07/17 01:38:49;;;;;;;7.65;2.60;;;;;;;-145.69;63.04;51949.31;5095966;28;20209;-85
2023/07/17 01:41:17;;;;;;;13.02;2.65;;;;;;;-145.69;63.44;51982.97;5096607;28;20312;-87
2023/07/17 01:43:43;;;;;;;5.05;2.00;;;;;;;-145.69;62.59;51957.25;5101504;28;20202;-86
2023/07/17 01:46:10;;;;;;;7.65;2.17;;;;;;;-145.69;62.52;51969.13;5099287;28;20205;-86
2023/07/17 01:48:36;;;;;;;7.53;2.60;;;;;;;-145.69;61.55;51945.34;5099600;28;20578;-86
2023/07/17 01:51:03;;;;;;;4.88;2.13;;;;;;;-145.69;61.04;51933.47;5099588;28;20209;-87
2023/07/17 01:53:29;;;;;;;6.15;2.08;;;;;;;-145.69;61.42;51961.19;5096466;28;20213;-85
2023/07/17 01:55:56;;;;;;;8.45;2.40;;;;;;;-145.69;61.51;51953.28;5095678;28;20205;-85
2023/07/17 01:58:24;;;;;;;3.90;2.00;;;;;;;-145.69;61.05;51975.06;5095668;28;20292;-86
2023/07/17 02:00:53;;;;;;;4.60;2.38;;;;;;;-145.69;61.29;51945.34;5096210;28;20229;-84
2023/07/17 02:03:19;;;;;;;6.78;2.70;;;;;;;-145.69;61.53;51963.19;5095559;28;20202;-87
2023/07/17 02:05:46;;;;;;;4.43;2.50;;;;;;;-145.69;61.75;51937.44;5095652;28;20217;-87
2023/07/17 02:08:13;;;;;;;6.30;2.40;;;;;;;-145.69;62.81;51965.16;5095383;28;20644;-84
2023/07/17 02:10:41;;;;;;;6.30;2.65;;;;;;;-145.69;63.30;51965.16;5094905;28;20657;-85
2023/07/17 02:13:07;;;;;;;6.15;2.90;;;;;;;-145.69;63.64;51943.38;5094412;28;20283;-85
2023/07/17 02:15:36;;;;;;;7.18;2.63;;;;;;;-145.69;64.65;51961.19;5096564;28;20198;-85
2023/07/17 02:18:02;;;;;;;6.80;2.72;;;;;;;-145.69;65.57;51957.25;5093992;28;20194;-83
2023/07/17 02:20:29;;;;;;;6.45;2.60;;;;;;;-145.69;65.63;51965.16;5093920;28;20222;-82
2023/07/17 02:22:55;;;;;;;8.32;3.15;;;;;;;-145.69;66.41;51941.41;5094557;28;20213;-84
2023/07/17 02:25:22;;;;;;;8.20;2.80;;;;;;;-145.69;66.78;51941.41;5094733;28;20207;-83
2023/07/17 02:27:48;;;;;;;7.95;3.05;;;;;;;-145.69;67.15;51953.28;5094511;28;20198;-83
2023/07/17 02:30:15;;;;;;;4.82;2.95;;;;;;;-145.69;66.98;51963.19;5094617;28;20313;-83
2023/07/17 02:32:43;;;;;;;9.50;3.15;;;;;;;-145.69;67.26;51923.56;5094631;28;20597;-85
2023/07/17 02:35:09;;;;;;;7.50;3.05;;;;;;;-145.69;67.78;51961.19;5094485;28;20198;-85
2023/07/17 02:37:36;;;;;;;9.38;3.60;;;;;;;-145.69;67.79;51973.06;5094576;28;20206;-83
2023/07/17 02:40:10;;;;;;;10.32;3.20;;;;;;;-145.69;67.81;51973.06;5083580;28;20234;-85
2023/07/17 02:42:37;;;;;;;5.78;3.15;;;;;;;-145.69;67.70;51977.03;5074255;28;20205;-85
2023/07/17 02:45:04;;;;;;;4.63;2.78;;;;;;;-145.69;67.82;51953.28;5074508;28;20684;-85
2023/07/17 02:47:31;;;;;;;6.00;3.25;;;;;;;-145.69;68.05;51957.25;5073997;28;20234;-84
2023/07/17 02:49:59;;;;;;;3.22;2.45;;;;;;;-145.69;67.85;51973.06;5073918;28;20205;-87
2023/07/17 02:52:25;;;;;;;8.05;3.20;;;;;;;-145.69;68.40;51973.06;5074071;28;20214;-84
2023/07/17 02:54:52;;;;;;;7.78;3.55;;;;;;;-145.69;68.39;51935.47;5074156;28;20202;-87
2023/07/17 02:57:18;;;;;;;7.38;3.17;;;;;;;-145.69;69.01;52000.81;5074473;28;20204;-85
2023/07/17 02:59:45;;;;;;;4.93;2.75;;;;;;;-145.69;69.09;51988.91;5073720;28;20205;-85
2023/07/17 03:02:11;;;;;;;5.78;3.10;;;;;;;-145.69;69.26;51996.84;5073613;28;20210;-85
2023/07/17 03:04:38;;;;;;;7.65;2.90;;;;;;;-145.69;69.44;51981.00;5092205;28;20553;-84
2023/07/17 03:07:06;;;;;;;6.63;3.10;;;;;;;-145.69;69.75;51977.03;5094136;28;20749;-84
2023/07/17 03:09:32;;;;;;;5.20;3.25;;;;;;;-145.69;69.81;51984.97;5094056;28;20202;-85
2023/07/17 03:11:59;;;;;;;7.93;3.28;;;;;;;-145.69;69.93;51971.09;5093843;28;20191;-86
2023/07/17 03:14:25;;;;;;;5.93;2.90;;;;;;;-145.69;69.98;51973.06;5093616;28;20317;-86
2023/07/17 03:16:52;;;;;;;6.97;3.00;;;;;;;-145.69;69.96;51977.03;5094209;28;20225;-87
2023/07/17 03:19:18;;;;;;;5.97;3.17;;;;;;;-145.69;70.16;51957.25;5093928;28;20198;-84
2023/07/17 03:21:45;;;;;;;8.48;3.45;;;;;;;-145.69;70.08;51961.19;5093634;28;20222;-86
2023/07/17 03:24:13;;;;;;;6.88;3.33;;;;;;;-145.69;69.69;51973.06;5092628;28;20672;-84
2023/07/17 03:26:40;;;;;;;7.38;3.40;;;;;;;-145.69;70.03;51988.91;5093384;28;20281;-84
2023/07/17 03:29:07;;;;;;;9.98;3.47;;;;;;;-145.69;69.95;52004.75;5093702;28;20560;-87
2023/07/17 03:31:33;;;;;;;6.95;3.30;;;;;;;-145.69;69.93;51949.31;5093392;28;20216;-86
2023/07/17 03:34:00;;;;;;;6.30;3.13;;;;;;;-145.69;69.86;51992.88;5093881;28;20210;-88
2023/07/17 03:36:26;;;;;;;6.70;3.30;;;;;;;-145.69;69.63;51959.22;5094318;28;20236;-86
2023/07/17 03:38:53;;;;;;;11.38;2.90;;;;;;;-145.69;69.63;51984.97;5093777;28;20195;-84
2023/07/17 03:41:21;;;;;;;6.18;3.10;;;;;;;-145.69;69.94;51977.03;5093391;28;20222;-86
2023/07/17 03:43:48;;;;;;;7.07;3.38;;;;;;;-145.69;69.99;51981.00;5093378;28;20198;-85
2023/07/17 03:46:14;;;;;;;8.15;3.50;;;;;;;-145.69;69.89;51990.91;5093864;28;20204;-87
2023/07/17 03:48:41;;;;;;;11.05;3.92;;;;;;;-145.69;69.98;51969.13;5093817;28;20295;-86
2023/07/17 03:51:07;;;;;;;7.55;3.40;;;;;;;-145.69;69.91;51996.84;5094024;28;20256;-86
2023/07/17 03:53:34;;;;;;;6.30;3.30;;;;;;;-145.69;69.66;51984.97;5094015;28;20641;-86
2023/07/17 03:56:01;;;;;;;7.40;3.50;;;;;;;-145.69;69.91;52000.81;5093868;28;20198;-85
2023/07/17 03:58:29;;;;;;;7.32;3.08;;;;;;;-145.69;69.76;51973.06;5093809;28;20240;-86
2023/07/17 04:00:55;;;;;;;8.80;3.22;;;;;;;-145.69;70.41;51998.81;5093384;28;20250;-85
2023/07/17 04:03:22;;;;;;;12.13;3.08;;;;;;;-145.69;70.06;51979.03;5093551;28;20206;-87
2023/07/17 04:05:48;;;;;;;7.60;3.35;;;;;;;-145.69;70.33;51973.06;5093635;28;20538;-87
2023/07/17 04:08:15;;;;;;;8.32;3.50;;;;;;;-145.69;70.13;51984.97;5093725;28;20597;-87
2023/07/17 04:10:42;;;;;;;6.75;3.00;;;;;;;-145.69;70.11;51961.19;5093381;28;20229;-85
2023/07/17 04:13:08;;;;;;;6.07;3.05;;;;;;;-145.69;70.44;51994.88;5093941;28;20260;-85
2023/07/17 04:15:37;;;;;;;6.07;2.88;;;;;;;-145.69;69.93;51986.94;5092940;28;20202;-86
2023/07/17 04:18:03;;;;;;;5.40;3.05;;;;;;;-145.69;70.19;51986.94;5093412;28;20197;-87
2023/07/17 04:20:30;;;;;;;6.93;3.65;;;;;;;-145.69;69.99;51982.97;5093700;28;20225;-87
2023/07/17 04:22:57;;;;;;;8.70;3.55;;;;;;;-145.69;69.59;51969.13;5093577;28;20213;-87
2023/07/17 04:25:23;;;;;;;6.88;3.15;;;;;;;-145.69;69.34;51981.00;5093231;28;20202;-87
2023/07/17 04:27:49;;;;;;;6.25;3.42;;;;;;;-145.69;69.05;51984.97;5093333;28;20190;-86
2023/07/17 04:30:16;;;;;;;6.20;3.10;;;;;;;-145.69;68.96;51988.91;5093213;28;20205;-86
2023/07/17 04:32:44;;;;;;;6.75;3.13;;;;;;;-145.69;68.76;51947.34;5093138;28;20677;-87
2023/07/17 04:35:11;;;;;;;6.13;3.22;;;;;;;-145.69;68.65;51979.03;5093687;28;20202;-88
2023/07/17 04:37:37;;;;;;;13.27;3.13;;;;;;;-145.69;68.32;51971.09;5093310;28;20206;-87
2023/07/17 04:40:05;;;;;;;3.85;2.85;;;;;;;-145.69;68.70;51984.97;5093395;28;20202;-86
2023/07/17 04:42:32;;;;;;;6.43;3.00;;;;;;;-145.69;68.25;51990.91;5091743;28;20219;-87
2023/07/17 04:44:58;;;;;;;7.55;3.42;;;;;;;-145.69;67.55;51982.97;5077611;28;20199;-87
2023/07/17 04:47:25;;;;;;;4.30;2.75;;;;;;;-145.69;67.74;51969.13;5097469;28;20202;-88
2023/07/17 04:49:53;;;;;;;6.72;2.85;;;;;;;-145.69;66.93;51959.22;5097236;28;20209;-87
2023/07/17 04:52:20;;;;;;;7.00;2.85;;;;;;;-145.69;67.20;51953.28;5096985;28;20206;-87
2023/07/17 04:54:46;;;;;;;6.63;2.83;;;;;;;-145.69;66.77;51943.38;5096960;28;20667;-87
2023/07/17 04:57:13;;;;;;;5.88;2.53;;;;;;;-145.69;66.84;51957.25;5097139;28;20206;-86
2023/07/17 04:59:39;;;;;;;4.80;2.55;;;;;;;-145.69;66.89;51971.09;5096870;28;20201;-86
2023/07/17 05:02:06;;;;;;;10.57;2.95;;;;;;;-145.69;66.52;51953.28;5096893;28;20633;-87
2023/07/17 05:04:33;;;;;;;7.05;3.28;;;;;;;-145.69;67.25;51981.00;5096109;28;20216;-87
2023/07/17 05:07:01;;;;;;;7.18;3.08;;;;;;;-145.69;67.34;51973.06;5096729;28;20588;-88
2023/07/17 05:09:27;;;;;;;4.75;3.20;;;;;;;-145.69;67.43;51971.09;5096881;28;20251;-87
2023/07/17 05:11:54;;;;;;;8.82;3.17;;;;;;;-145.69;66.80;51969.13;5096710;28;20281;-88
2023/07/17 05:14:21;;;;;;;5.20;2.90;;;;;;;-145.69;66.20;51933.47;5096626;28;20286;-88
2023/07/17 05:16:48;;;;;;;6.78;3.00;;;;;;;-145.69;65.73;51923.56;5097594;28;20210;-87
2023/07/17 05:19:14;;;;;;;3.92;2.60;;;;;;;-145.69;64.64;51941.41;5097866;28;20538;-87
2023/07/17 05:21:41;;;;;;;7.90;2.75;;;;;;;-145.69;64.27;51971.09;5096803;28;20233;-87
2023/07/17 05:24:09;;;;;;;4.30;2.92;;;;;;;-145.69;63.50;51945.34;5097301;28;20210;-87
2023/07/17 05:26:35;;;;;;;3.85;2.13;;;;;;;-145.69;63.13;51933.47;5096455;28;20212;-87
2023/07/17 05:29:03;;;;;;;5.72;2.70;;;;;;;-145.69;62.60;51945.34;5096480;28;20206;-87
2023/07/17 05:31:30;;;;;;;5.13;2.85;;;;;;;-145.69;62.68;51959.22;5096207;28;20202;-87
2023/07/17 05:33:56;;;;;;;4.68;2.55;;;;;;;-145.69;62.95;51919.63;5097008;28;20699;-88
2023/07/17 05:36:23;;;;;;;6.13;2.88;;;;;;;-145.69;62.47;51945.34;5096765;28;20206;-85
2023/07/17 05:38:50;;;;;;;7.55;2.80;;;;;;;-145.69;62.34;51905.75;5097613;28;20635;-88
2023/07/17 05:41:18;;;;;;;4.68;2.40;;;;;;;-145.69;61.99;51905.75;5096474;28;20256;-88
2023/07/17 05:43:44;;;;;;;4.25;2.40;;;;;;;-145.69;62.26;51949.31;5096524;28;20221;-88
2023/07/17 05:46:11;;;;;;;6.05;2.50;;;;;;;-145.69;61.03;51885.94;5095278;28;20206;-87
2023/07/17 05:48:38;;;;;;;3.97;2.22;;;;;;;-145.69;60.61;51887.94;5097873;28;20210;-87
2023/07/17 05:51:05;;;;;;;7.72;2.60;;;;;;;-145.69;59.85;51935.47;5100953;28;20606;-86
2023/07/17 05:53:32;;;;;;;3.90;2.40;;;;;;;-145.69;57.43;51909.72;5096558;28;20222;-88
2023/07/17 05:55:58;;;;;;;7.32;2.80;;;;;;;-145.69;56.36;51883.97;5098449;28;20206;-88
2023/07/17 05:58:26;;;;;;;6.20;2.38;;;;;;;-145.69;54.81;51885.94;5096941;28;20202;-87
2023/07/17 06:00:53;;;;;;;4.78;2.10;;;;;;;-145.69;51.46;51868.13;5095224;28;20201;-85
2023/07/17 06:03:20;;;;;;;6.10;2.40;;;;;;;-145.69;51.65;51880.00;5099729;28;20645;-88
2023/07/17 06:05:46;;;;;;;5.00;2.58;;;;;;;-145.69;51.28;51882.00;5101545;28;20294;-85
2023/07/17 06:08:14;;;;;;;4.30;2.45;;;;;;;-145.69;50.42;51878.03;5101415;28;20202;-88
2023/07/17 06:10:43;;;;;;;5.00;2.50;;;;;;;-145.69;49.66;51893.88;5105765;28;20251;-87
2023/07/17 06:13:12;;;;;;;5.15;2.53;;;;;;;-145.69;47.97;51854.28;5103972;28;20684;-88
2023/07/17 06:15:41;;;;;;;4.70;2.63;;;;;;;-145.69;47.76;51885.94;5102154;28;20194;-88
2023/07/17 06:18:08;;;;;;;8.15;2.75;;;;;;;-145.69;47.03;51913.69;5100441;28;20213;-87
2023/07/17 06:20:35;;;;;;;7.57;2.45;;;;;;;-145.69;46.82;51903.78;5102305;28;20205;-88
2023/07/17 06:23:01;;;;;;;5.53;2.30;;;;;;;-145.69;46.10;51870.13;5099593;28;20321;-87
2023/07/17 06:25:28;;;;;;;9.20;2.67;;;;;;;-145.69;45.67;51846.34;5097071;28;20293;-88
2023/07/17 06:27:54;;;;;;;7.03;2.35;;;;;;;-145.69;45.05;51832.50;5097370;28;20202;-87
2023/07/17 06:30:21;;;;;;;5.38;2.38;;;;;;;-145.69;44.27;51850.31;5095752;28;20206;-87
2023/07/17 06:32:49;;;;;;;6.07;2.35;;;;;;;-145.69;44.32;51838.44;5099429;28;20199;-88
2023/07/17 06:35:16;;;;;;;8.90;3.03;;;;;;;-145.69;43.14;51830.50;5098683;28;20297;-87
2023/07/17 06:37:42;;;;;;;6.78;2.33;;;;;;;-145.69;44.03;51808.72;5096652;28;20209;-88
2023/07/17 06:40:10;;;;;;;8.85;2.53;;;;;;;-145.69;43.61;51870.13;5097745;28;20661;-87
2023/07/17 06:42:37;;;;;;;10.10;2.20;;;;;;;-145.69;42.54;51836.44;5092312;28;20249;-86
2023/07/17 06:45:17;;;;;;;7.13;2.70;;;;;;;-145.69;42.22;51844.38;5076295;28;20668;-88
2023/07/17 06:47:43;;;;;;;8.73;2.53;;;;;;;-145.69;41.81;51834.47;5074657;28;20565;-86
2023/07/17 06:50:11;;;;;;;6.00;2.65;;;;;;;-145.69;42.21;51816.66;5074691;28;20649;-87
2023/07/17 06:52:38;;;;;;;5.43;2.38;;;;;;;-145.69;42.40;51838.44;5074172;28;20684;-87
2023/07/17 06:55:06;;;;;;;5.68;2.72;;;;;;;-145.69;42.06;51822.59;5089675;28;20202;-88
2023/07/17 06:57:33;;;;;;;8.07;2.92;;;;;;;-145.69;41.66;51824.56;5095875;28;20198;-86
2023/07/17 07:00:00;;;;;;;9.25;3.45;;;;;;;-145.69;40.21;51842.38;5094325;28;20198;-85
2023/07/17 07:02:26;;;;;;;7.82;3.03;;;;;;;-145.69;38.98;51830.50;5094438;28;20229;-87
2023/07/17 07:04:53;;;;;;;10.30;3.35;;;;;;;-145.69;39.11;51834.47;5094055;28;20572;-86
2023/07/17 07:07:20;;;;;;;5.55;2.97;;;;;;;-145.69;38.97;51832.50;5094882;28;20206;-88
2023/07/17 07:09:47;;;;;;;8.25;3.00;;;;;;;-145.69;39.06;51822.59;5095080;28;20211;-86
2023/07/17 07:12:14;;;;;;;9.65;3.10;;;;;;;-145.69;38.74;51834.47;5094501;28;20561;-86
2023/07/17 07:14:40;;;;;;;8.00;2.95;;;;;;;-145.69;37.18;51830.50;5094849;28;20210;-87
2023/07/17 07:17:07;;;;;;;11.27;3.20;;;;;;;-145.69;36.84;51824.56;5094725;28;20213;-88
2023/07/17 07:19:33;;;;;;;7.78;2.92;;;;;;;-145.69;37.09;51838.44;5093889;28;20209;-86
2023/07/17 07:22:00;;;;;;;7.65;3.00;;;;;;;-145.69;36.57;51822.59;5101896;28;20627;-87
2023/07/17 07:24:28;;;;;;;8.80;3.35;;;;;;;-145.69;36.68;51840.41;5103415;28;20668;-89
2023/07/17 07:26:56;;;;;;;8.05;3.42;;;;;;;-145.69;36.41;51826.56;5098192;28;20206;-89
2023/07/17 07:29:28;;;;;;;10.65;3.88;;;;;;;-145.69;37.14;51800.81;5112160;28;20201;-89
2023/07/17 07:31:55;;;;;;;9.85;3.38;;;;;;;-145.69;36.42;51834.47;5108510;28;20224;-88
2023/07/17 07:34:21;;;;;;;7.68;3.28;;;;;;;-145.69;37.21;51822.59;5101394;28;20213;-89
2023/07/17 07:36:48;;;;;;;9.43;3.42;;;;;;;-145.69;37.00;51862.19;5101469;28;20210;-88
2023/07/17 07:39:15;;;;;;;8.25;3.17;;;;;;;-145.69;36.58;51822.59;5105984;28;20301;-87
2023/07/17 07:41:43;;;;;;;6.95;3.10;;;;;;;-145.69;36.52;51816.66;5104832;28;20225;-88
2023/07/17 07:44:09;;;;;;;10.98;3.25;;;;;;;-145.69;36.72;51852.28;5104879;28;20213;-88
2023/07/17 07:46:38;;;;;;;8.57;3.60;;;;;;;-145.69;36.62;51810.72;5103543;28;20194;-88
2023/07/17 07:49:05;;;;;;;7.05;3.03;;;;;;;-145.69;36.04;51814.66;5104692;28;20292;-90
2023/07/17 07:51:39;;;;;;;7.80;2.90;;;;;;;-145.69;35.27;51808.72;5105055;28;20198;-89
2023/07/17 07:54:10;;;;;;;9.80;3.00;;;;;;;-145.69;35.42;51810.72;5105728;28;20198;-87
2023/07/17 07:56:37;;;;;;;6.07;2.92;;;;;;;-145.69;36.30;51814.66;5099709;28;20210;-88
2023/07/17 07:59:05;;;;;;;9.60;3.50;;;;;;;-145.69;36.21;51806.75;5103556;28;20200;-89
2023/07/17 08:01:33;;;;;;;7.75;2.85;;;;;;;-145.69;36.75;51830.50;5104324;28;20202;-89
2023/07/17 08:04:00;;;;;;;8.65;3.22;;;;;;;-145.69;37.04;51834.47;5102224;28;20197;-87
2023/07/17 08:06:28;;;;;;;6.55;3.47;;;;;;;-145.69;36.52;51808.72;5097008;28;20206;-89
2023/07/17 08:08:55;;;;;;;6.95;3.38;;;;;;;-145.69;36.05;51836.44;5095281;28;20339;-87
2023/07/17 08:11:22;;;;;;;6.97;3.13;;;;;;;-145.69;36.39;51808.72;5103322;28;20205;-89
2023/07/17 08:13:48;;;;;;;7.63;3.50;;;;;;;-145.69;36.86;51830.50;5106356;28;20303;-88
2023/07/17 08:16:16;;;;;;;8.82;3.22;;;;;;;-145.69;36.74;51808.72;5096462;28;20197;-88
2023/07/17 08:18:48;;;;;;;9.13;3.30;;;;;;;-145.69;36.07;51802.78;5101278;28;20194;-88
2023/07/17 08:21:14;;;;;;;8.50;3.20;;;;;;;-145.69;36.78;51858.22;5100784;28;20241;-88
2023/07/17 08:23:41;;;;;;;10.10;3.85;;;;;;;-145.69;35.52;51836.44;5099246;28;20221;-87
2023/07/17 08:26:10;;;;;;;9.57;3.30;;;;;;;-145.69;35.85;51818.63;5099331;28;20207;-88
2023/07/17 08:28:36;;;;;;;10.30;2.90;;;;;;;-145.69;36.05;51818.63;5106103;28;20298;-89
2023/07/17 08:31:03;;;;;;;8.77;3.13;;;;;;;-145.69;36.20;51798.81;5102083;28;20202;-88
2023/07/17 08:33:31;;;;;;;7.97;3.30;;;;;;;-145.69;36.04;51814.66;5101111;28;20198;-87
2023/07/17 08:35:59;;;;;;;7.93;3.10;;;;;;;-145.69;35.90;51806.75;5099367;28;20486;-88
2023/07/17 08:38:26;;;;;;;11.32;3.25;;;;;;;-145.69;35.14;51798.81;5097461;28;20659;-88
2023/07/17 08:40:54;;;;;;;7.97;3.15;;;;;;;-145.69;35.88;51806.75;5099975;28;20202;-87
2023/07/17 08:43:22;;;;;;;9.23;3.20;;;;;;;-145.69;34.88;51796.84;5099395;28;20692;-88
2023/07/17 08:45:49;;;;;;;10.48;3.67;;;;;;;-145.69;35.22;51814.66;5100165;28;20205;-88
2023/07/17 08:48:17;;;;;;;7.28;3.30;;;;;;;-145.69;36.20;51812.69;5099900;28;20198;-86
2023/07/17 08:50:45;;;;;;;7.10;2.97;;;;;;;-145.69;35.74;51806.75;5097428;28;20198;-86
2023/07/17 08:53:12;;;;;;;9.77;3.25;;;;;;;-145.69;35.08;51806.75;5097062;28;20213;-87
2023/07/17 08:55:39;;;;;;;8.38;3.05;;;;;;;-145.69;34.89;51802.78;5101696;28;20202;-86
2023/07/17 08:58:06;;;;;;;8.00;3.22;;;;;;;-145.69;34.93;51790.91;5100853;28;20206;-87
2023/07/17 09:00:33;;;;;;;7.55;3.00;;;;;;;-145.69;35.07;51786.94;5104114;28;20201;-87
2023/07/17 09:03:00;;;;;;;7.60;2.95;;;;;;;-145.69;37.99;51822.59;5102751;28;20696;-86
2023/07/17 09:05:29;;;;;;;8.55;3.33;;;;;;;-145.69;36.19;51816.66;5107405;28;20561;-89
2023/07/17 09:07:59;;;;;;;6.97;3.47;;;;;;;-145.69;35.83;51779.03;5108307;28;20194;-87
2023/07/17 09:10:26;;;;;;;6.85;3.40;;;;;;;-145.69;36.23;51783.00;5105752;28;20202;-87
2023/07/17 09:12:55;;;;;;;6.50;3.25;;;;;;;-145.69;35.56;51757.25;5106436;28;20226;-87
2023/07/17 09:15:22;;;;;;;5.93;3.35;;;;;;;-145.69;34.63;51812.69;5099872;28;20561;-84
2023/07/17 09:17:49;;;;;;;9.02;3.30;;;;;;;-145.69;35.66;51773.09;5097894;28;20284;-85
2023/07/17 09:20:19;;;;;;;5.20;2.72;;;;;;;-145.69;34.83;51806.75;5098464;28;20625;-84
2023/07/17 09:22:46;;;;;;;6.13;3.35;;;;;;;-145.69;34.27;51779.03;5097129;28;20317;-85
2023/07/17 09:25:14;;;;;;;7.00;3.20;;;;;;;-145.69;36.38;51794.88;5098691;28;20456;-86
2023/07/17 09:27:44;;;;;;;8.93;4.20;;;;;;;-145.69;36.16;51806.75;5097222;28;20202;-86
2023/07/17 09:30:13;;;;;;;6.32;3.00;;;;;;;-145.69;34.89;51784.97;5099618;28;20190;-86
2023/07/17 09:32:40;;;;;;;8.73;3.60;;;;;;;-145.69;35.23;51775.06;5096351;28;20193;-87
2023/07/17 09:35:08;;;;;;;10.55;3.50;;;;;;;-145.69;34.38;51783.00;5099842;28;20671;-87
2023/07/17 09:37:36;;;;;;;6.10;3.47;;;;;;;-145.69;34.46;51765.16;5100214;28;20201;-86
2023/07/17 09:40:07;;;;;;;9.38;3.35;;;;;;;-145.69;34.11;51751.31;5097283;28;20205;-85
2023/07/17 09:42:35;;;;;;;7.47;3.45;;;;;;;-145.69;32.89;51798.81;5096886;28;20222;-86
2023/07/17 09:45:02;;;;;;;7.43;3.67;;;;;;;-145.69;33.85;51806.75;5097454;28;20210;-85
2023/07/17 09:47:30;;;;;;;11.18;3.83;;;;;;;-145.69;33.28;51747.34;5097765;28;20206;-85
2023/07/17 09:49:58;;;;;;;6.97;3.03;;;;;;;-145.69;33.53;51753.28;5100207;28;20202;-86
2023/07/17 09:52:24;;;;;;;5.55;2.83;;;;;;;-145.69;34.04;51757.25;5099658;28;20202;-87
2023/07/17 09:54:51;;;;;;;5.82;2.97;;;;;;;-145.69;35.68;51777.03;5101875;28;20198;-86
2023/07/17 09:57:26;;;;;;;7.90;3.30;;;;;;;-145.69;35.10;51779.03;5098020;28;20271;-84
2023/07/17 09:59:56;;;;;;;8.70;3.10;;;;;;;-145.69;35.42;51747.34;5095482;28;20193;-87
2023/07/17 10:02:24;;;;;;;9.10;3.72;;;;;;;-145.69;35.00;51751.31;5096607;28;20218;-86
2023/07/17 10:04:54;;;;;;;7.47;3.25;;;;;;;-145.69;35.34;51759.22;5102298;28;20202;-87
2023/07/17 10:07:21;;;;;;;6.30;3.30;;;;;;;-145.69;34.76;51727.53;5099803;28;20206;-84
2023/07/17 10:09:49;;;;;;;8.05;2.95;;;;;;;-145.69;33.10;51717.66;5099514;28;20206;-86
2023/07/17 10:12:16;;;;;;;5.25;3.17;;;;;;;-145.69;33.76;51747.34;5096818;28;20231;-84
2023/07/17 10:14:58;;;;;;;6.47;3.15;;;;;;;-145.69;33.27;51727.53;5100642;28;20706;-87
2023/07/17 10:17:30;;;;;;;8.20;3.13;;;;;;;-145.69;33.88;51743.38;5101942;28;20227;-87
2023/07/17 10:20:03;;;;;;;7.32;3.20;;;;;;;-145.69;33.80;51733.50;5099955;28;20206;-87
2023/07/17 10:22:34;;;;;;;7.03;3.25;;;;;;;-145.69;33.64;51731.50;5103034;28;20222;-87
2023/07/17 10:25:09;;;;;;;5.75;2.95;;;;;;;-145.69;33.16;51727.53;5101017;28;20557;-86
2023/07/17 10:27:38;;;;;;;6.13;3.40;;;;;;;-145.69;33.58;51725.56;5098661;28;20205;-86
2023/07/17 10:30:27;;;;;;;7.32;3.58;;;;;;;-145.69;32.87;51725.56;5099276;28;20202;-86
2023/07/17 10:33:19;;;;;;;6.65;3.35;;;;;;;-145.69;32.35;51703.78;5104912;28;20273;-86
2023/07/17 10:35:52;;;;;;;5.10;3.10;;;;;;;-145.69;31.77;51678.03;5101917;28;20194;-86
2023/07/17 10:38:26;;;;;;;7.47;3.38;;;;;;;-145.69;30.68;51664.19;5101632;28;20202;-87
2023/07/17 10:41:05;;;;;;;6.28;3.42;;;;;;;-145.69;29.45;51697.84;5105190;28;20198;-86
2023/07/17 10:43:34;;;;;;;9.27;2.90;;;;;;;-145.69;31.15;51648.34;5097274;28;20225;-85
2023/07/17 10:46:12;;;;;;;7.97;3.08;;;;;;;-145.69;30.39;51695.88;5097848;28;20560;-88
2023/07/17 10:48:41;;;;;;;5.13;2.80;;;;;;;-145.69;30.65;51660.22;5101911;28;20198;-86
2023/07/17 10:51:08;;;;;;;8.05;3.53;;;;;;;-145.69;31.06;51644.38;5098115;28;20202;-84
2023/07/17 10:53:38;;;;;;;7.60;3.08;;;;;;;-145.69;30.18;51658.25;5100309;28;20194;-86
2023/07/17 10:56:10;;;;;;;5.68;2.78;;;;;;;-145.69;29.00;51650.31;5098229;28;20202;-86
2023/07/17 10:58:39;;;;;;;5.55;3.22;;;;;;;-145.69;30.28;51664.19;5096956;28;20202;-87
2023/07/17 11:01:07;;;;;;;5.40;3.00;;;;;;;-145.69;30.44;51672.09;5099999;28;20202;-86
2023/07/17 11:03:34;;;;;;;6.68;3.13;;;;;;;-145.69;30.18;51656.25;5100931;28;20221;-86
2023/07/17 11:06:04;;;;;;;6.20;3.15;;;;;;;-145.69;31.04;51682.00;5100291;28;20213;-86
2023/07/17 11:08:31;;;;;;;7.00;2.75;;;;;;;-145.69;29.92;51648.34;5101445;28;20205;-86
2023/07/17 11:10:57;;;;;;;6.15;2.80;;;;;;;-145.69;29.06;51648.34;5098650;28;20587;-86
2023/07/17 11:13:30;;;;;;;5.30;2.72;;;;;;;-145.69;29.10;51685.97;5094943;28;20230;-85
2023/07/17 11:16:05;;;;;;;6.63;2.83;;;;;;;-145.69;29.25;51640.44;5096114;28;20212;-84
2023/07/17 11:18:43;;;;;;;6.10;2.97;;;;;;;-145.69;29.09;51664.19;5098768;28;20255;-87